Terminal Aerodrome Forecast
Issued by NWS

Home | Current Version | Previous Version | Text Only | Print | Product List | Glossary On
Versions: 1 2 3 4 5 6 7 8 9 10 11 12 13 14 15 16 17 18 19 20 21
000
FTUS43 KILX 050500
TAFBMI
TAF
KBMI 050524Z 0506/0606 34010KT P6SM BKN170
     FM050800 34009KT P6SM SCT040 BKN170
     FM051400 33010KT P6SM SKC
     FM060100 27004KT P6SM SKC=

USA.gov is the U.S. government's official web portal to all federal, state and local government web resources and services.